Time;durP1;ratioP1;P1;durP2;ratioP2;P2;SDS_P1;SDS_P2;PMS_P1;PMS_P2;Temp;Humidity;BMP_temperature;BMP_pressure;BME280_temperature;BME280_humidity;BME280_pressure;Samples;Min_cycle;Max_cycle;Signal;HPM_P1;HPM_P2
2021/12/07 22:17:43;;;;;;;1.60;1.47;;;27.90;35.60;;;-142.21;31.36;112049.66;6133765;22;1293324;-53
2021/12/07 22:20:13;;;;;;;1.50;1.40;;;27.90;35.60;;;-142.21;31.39;112049.66;6183622;23;20184;-53
2021/12/07 22:22:42;;;;;;;2.03;1.63;;;27.90;35.60;;;-142.21;31.70;112049.66;6183686;23;20176;-53
2021/12/07 22:25:10;;;;;;;3.00;1.40;;;27.90;35.60;;;-142.21;31.34;112049.66;6183678;23;20258;-53
2021/12/07 22:27:38;;;;;;;2.50;1.50;;;28.00;35.70;;;-142.21;31.70;112049.66;6183195;23;20627;-53
2021/12/07 22:30:09;;;;;;;1.43;1.33;;;27.90;35.60;;;-142.21;31.66;112049.66;6184252;23;20231;-53
2021/12/07 22:32:39;;;;;;;2.27;1.20;;;27.90;35.70;;;-142.21;31.82;112049.66;6183439;23;20243;-53
2021/12/07 22:35:11;;;;;;;2.33;1.50;;;27.80;35.70;;;-142.21;31.84;112049.66;6183846;23;20174;-53
2021/12/07 22:37:38;;;;;;;1.40;1.30;;;27.90;35.70;;;-142.21;31.85;112049.66;6182954;23;20220;-53
2021/12/07 22:40:10;;;;;;;3.17;1.53;;;27.90;35.70;;;-142.21;31.71;112049.66;6185618;23;20258;-53
2021/12/07 22:42:38;;;;;;;2.03;1.37;;;27.80;35.70;;;-142.21;31.52;112049.66;6185488;23;20538;-53
2021/12/07 22:45:07;;;;;;;3.23;1.40;;;27.80;36.30;;;-142.21;31.84;112049.66;6186114;23;20218;-53
2021/12/07 22:47:34;;;;;;;1.93;1.50;;;27.80;35.70;;;-142.21;31.68;112049.66;6184768;23;20222;-53
2021/12/07 22:50:02;;;;;;;2.10;1.70;;;27.80;35.80;;;-142.21;32.02;112049.66;6185662;23;20503;-53
2021/12/07 22:52:31;;;;;;;1.60;1.43;;;27.90;35.80;;;-142.21;31.42;112049.66;6184686;23;20180;-53
2021/12/07 22:55:01;;;;;;;2.17;1.80;;;27.80;35.80;;;-142.21;31.57;112049.66;6185078;23;20222;-53
2021/12/07 22:57:29;;;;;;;3.03;1.63;;;27.80;35.70;;;-142.21;31.61;112049.66;6186023;23;20183;-53
2021/12/07 22:59:59;;;;;;;1.93;1.60;;;27.80;35.70;;;-142.21;31.55;112049.66;6185951;23;20237;-52
2021/12/07 23:02:26;;;;;;;2.80;1.50;;;27.80;35.80;;;-142.21;31.59;112049.66;6186054;23;20264;-53
2021/12/07 23:04:53;;;;;;;4.77;1.93;;;27.80;35.80;;;-142.21;31.58;112049.66;6184919;23;20607;-53
2021/12/07 23:07:20;;;;;;;1.73;1.40;;;27.80;35.80;;;-142.21;31.48;112049.66;6185723;23;20214;-52
2021/12/07 23:09:49;;;;;;;2.43;1.60;;;27.80;35.70;;;-142.21;31.64;112049.66;6184663;23;20183;-53
2021/12/07 23:12:16;;;;;;;3.23;1.53;;;27.90;35.80;;;-142.21;31.39;112049.66;6186095;23;20180;-52
2021/12/07 23:14:43;;;;;;;1.67;1.53;;;27.80;35.70;;;-142.21;31.24;112049.66;6184951;23;20283;-53
2021/12/07 23:17:12;;;;;;;1.60;1.50;;;27.80;35.70;;;-142.21;31.50;112049.66;6192842;23;20286;-53
2021/12/07 23:19:39;;;;;;;2.27;1.50;;;27.80;35.70;;;-142.21;31.52;112049.66;6214842;23;20203;-53
2021/12/07 23:22:07;;;;;;;2.40;1.70;;;27.90;35.80;;;-142.21;31.59;112049.66;6215215;23;20259;-53
2021/12/07 23:24:34;;;;;;;1.50;1.40;;;27.90;35.70;;;-142.21;31.68;112049.66;6215311;23;20185;-53
2021/12/07 23:27:03;;;;;;;2.40;1.50;;;27.90;35.80;;;-142.21;31.62;112049.66;6214902;23;20508;-53
2021/12/07 23:29:30;;;;;;;1.63;1.43;;;27.80;35.70;;;-142.21;31.61;112049.66;6215307;23;20174;-53
2021/12/07 23:31:59;;;;;;;1.50;1.40;;;27.80;36.40;;;-142.21;31.64;112049.66;6214504;23;20185;-53
2021/12/07 23:34:28;;;;;;;1.17;1.10;;;27.80;35.70;;;-142.21;31.60;112049.66;6215405;23;20261;-53
2021/12/07 23:36:56;;;;;;;2.07;1.40;;;27.80;36.40;;;-142.21;31.56;112049.66;6214647;23;20180;-53
2021/12/07 23:39:23;;;;;;;2.43;1.60;;;27.80;35.70;;;-142.21;31.64;112049.66;6215596;23;20285;-53
2021/12/07 23:41:50;;;;;;;1.73;1.40;;;27.90;35.70;;;-142.21;31.32;112049.66;6215180;23;20258;-53
2021/12/07 23:44:19;;;;;;;1.47;1.37;;;27.90;35.70;;;-142.21;31.40;112049.66;6214614;23;20752;-53
2021/12/07 23:46:46;;;;;;;1.77;1.40;;;27.90;35.60;;;-142.21;31.45;112049.66;6215491;23;20507;-53
2021/12/07 23:49:13;;;;;;;1.70;1.43;;;27.90;35.70;;;-142.21;31.62;112049.66;6214225;23;20429;-53
2021/12/07 23:51:40;;;;;;;1.57;1.30;;;27.90;35.60;;;-142.21;31.62;112049.66;6214904;23;20179;-53
2021/12/07 23:54:08;;;;;;;2.43;1.30;;;27.90;35.70;;;-142.21;31.40;112049.66;6214688;23;20185;-53
2021/12/07 23:56:35;;;;;;;3.63;1.40;;;27.80;35.60;;;-142.21;31.30;112049.66;6215397;23;20199;-52
2021/12/07 23:59:03;;;;;;;1.67;1.50;;;27.90;36.30;;;-142.21;31.48;112049.66;6214989;23;20591;-52
